createdAt,value
2023-07-26T00:02:19.930Z,98952.92
2023-07-26T00:04:46.339Z,98952.27
2023-07-26T00:07:12.702Z,98955.27
2023-07-26T00:09:39.008Z,98957.30
2023-07-26T00:12:05.863Z,98955.59
2023-07-26T00:14:32.355Z,98951.66
2023-07-26T00:16:58.807Z,98954.29
2023-07-26T00:19:25.306Z,98959.70
2023-07-26T00:21:51.721Z,98963.70
2023-07-26T00:24:18.066Z,98964.64
2023-07-26T00:26:44.412Z,98962.99
2023-07-26T00:29:10.811Z,98971.56
2023-07-26T00:31:37.380Z,98976.29
2023-07-26T00:34:03.868Z,98978.25
2023-07-26T00:36:30.758Z,98981.19
2023-07-26T00:38:57.430Z,98986.81
2023-07-26T00:41:24.073Z,98989.13
2023-07-26T00:43:50.517Z,98988.15
2023-07-26T00:46:17.038Z,98989.10
2023-07-26T00:48:43.728Z,98992.87
2023-07-26T00:51:10.531Z,98994.91
2023-07-26T00:53:37.302Z,98999.81
2023-07-26T00:56:03.925Z,99006.95
2023-07-26T00:58:30.513Z,99002.38
2023-07-26T01:00:57.920Z,98999.03
2023-07-26T01:03:24.353Z,99001.20
2023-07-26T01:06:25.469Z,99006.40
2023-07-26T01:09:03.401Z,99015.43
2023-07-26T01:11:39.371Z,99018.61
2023-07-26T01:14:18.198Z,99020.02
2023-07-26T01:16:45.646Z,99024.23
2023-07-26T01:19:12.040Z,99028.36
2023-07-26T01:21:38.544Z,99022.59
2023-07-26T01:24:05.269Z,99024.99
2023-07-26T01:26:31.755Z,99024.91
2023-07-26T01:28:58.151Z,99021.23
2023-07-26T01:31:25.573Z,99019.09
2023-07-26T01:33:52.953Z,99015.21
2023-07-26T01:36:24.186Z,99017.92
2023-07-26T01:38:52.236Z,99022.41
2023-07-26T01:41:19.371Z,99029.36
2023-07-26T01:43:45.860Z,99031.31
2023-07-26T01:46:13.381Z,99038.14
2023-07-26T01:48:40.850Z,99044.44
2023-07-26T01:51:08.096Z,99041.13
2023-07-26T01:53:34.940Z,99039.95
2023-07-26T01:56:01.872Z,99039.14
2023-07-26T01:58:28.406Z,99039.84
2023-07-26T02:00:55.272Z,99025.63
2023-07-26T02:03:22.311Z,99012.52
2023-07-26T02:05:49.248Z,99013.04
2023-07-26T02:08:18.233Z,99021.04
2023-07-26T02:10:44.896Z,99030.42
2023-07-26T02:13:11.403Z,99030.96
2023-07-26T02:15:37.846Z,99035.73
2023-07-26T02:18:04.267Z,99036.02
2023-07-26T02:20:30.736Z,99036.98
2023-07-26T02:22:57.879Z,99038.73
2023-07-26T02:25:24.346Z,99038.67
2023-07-26T02:27:51.214Z,99041.91
2023-07-26T02:30:17.706Z,99046.55
2023-07-26T02:32:44.092Z,99048.80
2023-07-26T02:35:10.524Z,99047.30
2023-07-26T02:37:36.961Z,99043.54
2023-07-26T02:40:05.186Z,99041.48
2023-07-26T02:42:31.671Z,99036.21
2023-07-26T02:44:59.338Z,99036.95
2023-07-26T02:47:25.775Z,99040.31
2023-07-26T02:49:52.180Z,99040.40
2023-07-26T02:52:18.614Z,99043.45
2023-07-26T02:54:45.033Z,99042.76
2023-07-26T02:57:11.481Z,99041.36
2023-07-26T02:59:37.888Z,99047.09
2023-07-26T03:02:04.514Z,99056.48
2023-07-26T03:04:30.867Z,99057.41
2023-07-26T03:06:57.248Z,99060.80
2023-07-26T03:09:23.654Z,99063.95
2023-07-26T03:11:49.995Z,99066.65
2023-07-26T03:14:16.375Z,99072.36
2023-07-26T03:16:44.721Z,99073.80
2023-07-26T03:19:11.478Z,99069.71
2023-07-26T03:21:38.001Z,99075.55
2023-07-26T03:24:04.791Z,99077.05
2023-07-26T03:26:31.359Z,99078.77
2023-07-26T03:28:58.027Z,99075.14
2023-07-26T03:31:24.374Z,99073.55
2023-07-26T03:33:50.773Z,99067.83
2023-07-26T03:36:17.296Z,99075.92
2023-07-26T03:38:43.786Z,99077.30
2023-07-26T03:41:10.092Z,99079.80
2023-07-26T03:43:36.474Z,99078.61
2023-07-26T03:46:03.404Z,99083.05
2023-07-26T03:48:29.806Z,99088.85
2023-07-26T03:50:56.197Z,99090.77
2023-07-26T03:53:22.524Z,99093.67
2023-07-26T03:55:48.922Z,99093.66
2023-07-26T03:58:15.251Z,99095.83
2023-07-26T04:00:41.609Z,99098.41
2023-07-26T04:03:08.289Z,99094.61
2023-07-26T04:05:35.148Z,99100.66
2023-07-26T04:08:01.561Z,99097.51
2023-07-26T04:10:28.654Z,99098.04
2023-07-26T04:12:55.068Z,99101.11
2023-07-26T04:15:21.378Z,99108.66
2023-07-26T04:17:47.932Z,99115.80
2023-07-26T04:20:14.363Z,99121.27
2023-07-26T04:22:40.953Z,99119.37
2023-07-26T04:25:07.812Z,99111.45
2023-07-26T04:27:34.179Z,99115.16
2023-07-26T04:30:00.492Z,99122.71
2023-07-26T04:32:26.882Z,99122.88
2023-07-26T04:34:53.250Z,99127.45
2023-07-26T04:37:19.614Z,99124.84
2023-07-26T04:39:46.807Z,99126.27
2023-07-26T04:42:13.137Z,99130.63
2023-07-26T04:44:39.498Z,99130.27
2023-07-26T04:47:06.060Z,99140.67
2023-07-26T04:49:32.473Z,99143.24
2023-07-26T04:51:58.790Z,99148.64
2023-07-26T04:54:25.084Z,99151.86
2023-07-26T04:56:51.657Z,99150.52
2023-07-26T04:59:17.965Z,99145.20
2023-07-26T05:01:44.372Z,99137.28
2023-07-26T05:04:10.846Z,99138.80
2023-07-26T05:06:37.524Z,99144.10
2023-07-26T05:09:05.616Z,99147.98
2023-07-26T05:11:32.697Z,99147.73
2023-07-26T05:13:59.388Z,99147.70
2023-07-26T05:16:25.836Z,99156.96
2023-07-26T05:18:53.716Z,99162.67
2023-07-26T05:21:19.987Z,99164.67
2023-07-26T05:23:46.743Z,99163.13
2023-07-26T05:26:13.261Z,99163.70
2023-07-26T05:28:42.100Z,99162.61
2023-07-26T05:31:08.448Z,99162.41
2023-07-26T05:33:34.870Z,99169.84
2023-07-26T05:36:01.373Z,99173.79
2023-07-26T05:38:28.050Z,99170.02
2023-07-26T05:41:03.704Z,99172.15
2023-07-26T05:43:30.090Z,99173.69
2023-07-26T05:45:58.060Z,99176.66
2023-07-26T05:48:24.406Z,99182.20
2023-07-26T05:50:50.792Z,99182.79
2023-07-26T05:53:17.160Z,99187.30
2023-07-26T05:55:43.583Z,99192.48
2023-07-26T05:58:09.918Z,99199.19
2023-07-26T06:00:36.345Z,99202.61
2023-07-26T06:03:02.896Z,99210.61
2023-07-26T06:05:29.825Z,99213.92
2023-07-26T06:07:56.084Z,99220.02
2023-07-26T06:10:22.403Z,99224.14
2023-07-26T06:12:48.752Z,99227.44
2023-07-26T06:15:15.196Z,99232.63
2023-07-26T06:17:41.811Z,99231.05
2023-07-26T06:20:11.397Z,99231.70
2023-07-26T06:22:37.786Z,99236.87
2023-07-26T06:25:05.718Z,99238.94
2023-07-26T06:27:32.247Z,99242.35
2023-07-26T06:30:04.718Z,99243.27
2023-07-26T06:32:42.269Z,99239.17
2023-07-26T06:35:11.841Z,99239.13
2023-07-26T06:37:38.252Z,99233.36
2023-07-26T06:40:06.378Z,99228.48
2023-07-26T06:42:33.431Z,99229.74
2023-07-26T06:44:59.884Z,99229.18
2023-07-26T06:47:26.267Z,99227.02
2023-07-26T06:49:52.875Z,99231.10
2023-07-26T06:52:19.204Z,99233.39
2023-07-26T06:54:45.744Z,99238.11
2023-07-26T06:57:12.261Z,99237.45
2023-07-26T06:59:38.668Z,99238.83
2023-07-26T07:02:08.460Z,99244.23
2023-07-26T07:04:35.631Z,99246.92
2023-07-26T07:07:01.973Z,99249.08
2023-07-26T07:09:29.254Z,99253.88
2023-07-26T07:11:55.592Z,99249.70
2023-07-26T07:14:22.892Z,99247.52
2023-07-26T07:16:49.186Z,99247.11
2023-07-26T07:19:15.597Z,99250.61
2023-07-26T07:21:42.666Z,99251.27
2023-07-26T07:24:09.011Z,99257.85
2023-07-26T07:26:35.345Z,99256.96
2023-07-26T07:29:01.656Z,99254.67
2023-07-26T07:31:28.169Z,99257.24
2023-07-26T07:33:54.509Z,99256.67
2023-07-26T07:36:20.860Z,99259.02
2023-07-26T07:38:47.753Z,99254.75
2023-07-26T07:41:15.023Z,99248.35
2023-07-26T07:43:41.405Z,99240.39
2023-07-26T07:46:07.790Z,99238.21
2023-07-26T07:48:34.946Z,99239.82
2023-07-26T07:51:01.445Z,99242.61
2023-07-26T07:53:29.885Z,99239.97
2023-07-26T07:55:57.415Z,99235.85
2023-07-26T07:58:23.938Z,99235.52
2023-07-26T08:00:50.415Z,99238.38
2023-07-26T08:03:16.787Z,99237.10
2023-07-26T08:05:43.327Z,99233.88
2023-07-26T08:08:09.742Z,99236.17
2023-07-26T08:10:39.155Z,99237.67
2023-07-26T08:13:05.609Z,99237.79
2023-07-26T08:15:33.408Z,99233.22
2023-07-26T08:18:00.082Z,99236.01
2023-07-26T08:20:26.600Z,99241.20
2023-07-26T08:22:54.173Z,99238.61
2023-07-26T08:25:24.783Z,99241.90
2023-07-26T08:27:51.060Z,99247.75
2023-07-26T08:30:17.857Z,99243.84
2023-07-26T08:32:44.202Z,99244.27
2023-07-26T08:35:10.889Z,99239.97
2023-07-26T08:37:37.320Z,99246.17
2023-07-26T08:40:06.329Z,99248.69
2023-07-26T08:42:32.817Z,99250.95
2023-07-26T08:45:00.093Z,99258.56
2023-07-26T08:47:27.944Z,99263.28
2023-07-26T08:49:54.500Z,99265.01
2023-07-26T08:52:22.156Z,99266.68
2023-07-26T08:54:48.915Z,99264.19
2023-07-26T08:57:19.207Z,99266.40
2023-07-26T08:59:45.710Z,99263.65
2023-07-26T09:02:15.715Z,99267.13
2023-07-26T09:04:42.268Z,99263.60
2023-07-26T09:07:08.841Z,99262.88
2023-07-26T09:09:36.530Z,99267.58
2023-07-26T09:12:03.231Z,99269.53
2023-07-26T09:14:31.891Z,99271.77
2023-07-26T09:17:00.624Z,99266.32
2023-07-26T09:19:32.752Z,99269.18
2023-07-26T09:22:01.730Z,99265.42
2023-07-26T09:24:35.939Z,99263.30
2023-07-26T09:27:12.897Z,99260.55
2023-07-26T09:29:41.673Z,99265.71
2023-07-26T09:32:08.568Z,99264.73
2023-07-26T09:34:35.416Z,99266.52
2023-07-26T09:37:02.569Z,99265.77
2023-07-26T09:39:33.603Z,99261.99
2023-07-26T09:42:06.240Z,99262.41
2023-07-26T09:44:33.186Z,99264.11
2023-07-26T09:47:00.179Z,99269.52
2023-07-26T09:49:27.646Z,99264.75
2023-07-26T09:54:34.837Z,99269.61
2023-07-26T09:57:06.530Z,99276.27
2023-07-26T09:59:36.531Z,99274.16
2023-07-26T10:02:08.658Z,99277.35
2023-07-26T10:04:49.660Z,99281.40
2023-07-26T10:07:16.235Z,99286.08
2023-07-26T10:09:47.378Z,99294.38
2023-07-26T10:12:14.802Z,99293.75
2023-07-26T10:14:42.367Z,99298.02
2023-07-26T10:17:13.404Z,99294.66
2023-07-26T10:19:41.506Z,99282.66
2023-07-26T10:22:08.696Z,99286.35
2023-07-26T10:24:37.364Z,99289.46
2023-07-26T10:27:05.149Z,99287.21
2023-07-26T10:29:31.968Z,99285.45
2023-07-26T10:32:05.229Z,99292.30
2023-07-26T10:34:31.907Z,99299.10
2023-07-26T10:36:59.365Z,99299.27
2023-07-26T10:39:33.286Z,99300.64
2023-07-26T10:42:00.176Z,99297.12
2023-07-26T10:44:26.551Z,99293.04
2023-07-26T10:47:02.022Z,99298.17
2023-07-26T10:49:30.276Z,99298.66
2023-07-26T10:52:02.917Z,99299.50
2023-07-26T10:54:39.721Z,99295.56
2023-07-26T10:57:27.436Z,99287.88
2023-07-26T11:00:06.487Z,99287.52
2023-07-26T11:02:45.485Z,99277.04
2023-07-26T11:05:22.937Z,99279.66
2023-07-26T11:08:08.285Z,99276.00
2023-07-26T11:10:37.059Z,99277.63
2023-07-26T11:13:06.165Z,99277.88
2023-07-26T11:16:13.478Z,99279.46
2023-07-26T11:18:21.576Z,99284.34
2023-07-26T11:20:51.152Z,99289.58
2023-07-26T11:23:24.202Z,99293.02
2023-07-26T11:25:55.097Z,99296.14
2023-07-26T11:28:21.861Z,99305.48
2023-07-26T11:30:59.253Z,99311.41
2023-07-26T11:33:34.472Z,99310.71
2023-07-26T11:36:03.575Z,99309.04
2023-07-26T11:38:30.189Z,99308.45
2023-07-26T11:40:57.266Z,99312.09
2023-07-26T11:43:28.404Z,99312.52
2023-07-26T11:45:56.540Z,99313.42
2023-07-26T11:48:24.962Z,99315.08
2023-07-26T11:50:55.920Z,99316.23
2023-07-26T11:53:41.630Z,99319.62
2023-07-26T11:56:09.892Z,99329.82
2023-07-26T11:58:36.779Z,99334.12
2023-07-26T12:01:04.198Z,99333.89
2023-07-26T12:03:30.926Z,99339.88
2023-07-26T12:05:59.795Z,99344.30
2023-07-26T12:08:29.809Z,99356.79
2023-07-26T12:10:56.172Z,99360.90
2023-07-26T12:13:24.227Z,99365.34
2023-07-26T12:15:53.436Z,99365.41
2023-07-26T12:18:24.671Z,99361.91
2023-07-26T12:23:24.622Z,99367.70
2023-07-26T12:26:00.440Z,99374.64
2023-07-26T12:28:27.294Z,99382.40
2023-07-26T12:30:55.461Z,99386.52
2023-07-26T12:33:23.053Z,99388.90
2023-07-26T12:35:52.526Z,99392.79
2023-07-26T12:38:18.939Z,99398.55
2023-07-26T12:40:46.933Z,99401.68
2023-07-26T12:43:30.532Z,99407.29
2023-07-26T12:46:03.954Z,99408.19
2023-07-26T12:48:31.490Z,99411.87
2023-07-26T12:50:57.893Z,99412.51
2023-07-26T12:53:25.222Z,99411.45
2023-07-26T12:55:51.833Z,99412.88
2023-07-26T12:58:18.408Z,99415.50
2023-07-26T13:00:44.939Z,99419.45
2023-07-26T13:03:11.614Z,99420.86
2023-07-26T13:05:38.379Z,99425.02
2023-07-26T13:08:05.024Z,99433.77
2023-07-26T13:10:31.496Z,99437.91
2023-07-26T13:12:57.795Z,99445.70
2023-07-26T13:15:24.262Z,99448.39
2023-07-26T13:17:52.981Z,99446.42
2023-07-26T13:20:20.251Z,99443.87
2023-07-26T13:22:47.828Z,99444.52
2023-07-26T13:25:14.428Z,99446.80
2023-07-26T13:27:42.232Z,99442.68
2023-07-26T13:30:09.514Z,99448.42
2023-07-26T13:32:36.560Z,99451.63
2023-07-26T13:35:07.004Z,99445.91
2023-07-26T13:37:35.135Z,99447.41
2023-07-26T13:40:05.088Z,99444.02
2023-07-26T13:42:35.186Z,99439.02
2023-07-26T13:45:06.760Z,99436.15
2023-07-26T13:47:33.481Z,99439.23
2023-07-26T13:49:59.894Z,99438.98
2023-07-26T13:52:26.408Z,99434.81
2023-07-26T13:54:52.886Z,99434.20
2023-07-26T13:57:19.333Z,99437.02
2023-07-26T13:59:45.680Z,99440.41
2023-07-26T14:02:12.185Z,99443.45
2023-07-26T14:04:38.588Z,99442.98
2023-07-26T14:07:05.686Z,99445.32
2023-07-26T14:09:32.300Z,99450.07
2023-07-26T14:12:00.340Z,99451.67
2023-07-26T14:14:27.404Z,99452.45
2023-07-26T14:16:53.830Z,99455.21
2023-07-26T14:19:20.181Z,99454.92
2023-07-26T14:21:46.854Z,99457.28
2023-07-26T14:24:13.240Z,99461.39
2023-07-26T14:26:39.579Z,99464.73
2023-07-26T14:29:06.610Z,99465.69
2023-07-26T14:31:33.083Z,99469.80
2023-07-26T14:33:59.597Z,99472.39
2023-07-26T14:36:26.037Z,99474.56
2023-07-26T14:38:52.443Z,99474.24
2023-07-26T14:41:20.043Z,99475.10
2023-07-26T14:43:47.567Z,99476.66
2023-07-26T14:46:13.964Z,99479.43
2023-07-26T14:48:41.069Z,99481.83
2023-07-26T14:51:07.618Z,99485.41
2023-07-26T14:53:34.011Z,99488.05
2023-07-26T14:56:00.391Z,99486.73
2023-07-26T14:58:26.750Z,99489.29
2023-07-26T15:00:53.575Z,99490.02
2023-07-26T15:03:22.358Z,99490.52
2023-07-26T15:05:49.090Z,99489.89
2023-07-26T15:08:16.228Z,99492.41
2023-07-26T15:10:42.739Z,99497.19
2023-07-26T15:13:09.238Z,99495.27
2023-07-26T15:15:35.693Z,99493.58
2023-07-26T15:18:02.363Z,99495.34
2023-07-26T15:20:28.942Z,99493.89
2023-07-26T15:22:55.332Z,99492.65
2023-07-26T15:25:21.641Z,99495.33
2023-07-26T15:27:48.053Z,99496.40
2023-07-26T15:30:14.498Z,99500.52
2023-07-26T15:32:43.178Z,99502.23
2023-07-26T15:35:11.505Z,99504.54
2023-07-26T15:37:43.773Z,99508.52
2023-07-26T15:40:10.550Z,99508.52
2023-07-26T15:42:36.962Z,99504.47
2023-07-26T15:45:20.276Z,99501.59
2023-07-26T15:47:47.346Z,99504.76
2023-07-26T15:50:15.378Z,99506.73
2023-07-26T15:52:42.392Z,99511.64
2023-07-26T15:55:09.451Z,99510.57
2023-07-26T15:57:36.099Z,99510.96
2023-07-26T16:00:02.931Z,99505.23
2023-07-26T16:03:02.962Z,99506.98
2023-07-26T16:10:16.916Z,99507.48
2023-07-26T16:12:43.689Z,99508.98
2023-07-26T16:20:09.799Z,99524.58
2023-07-26T16:22:36.104Z,99524.39
2023-07-26T16:25:02.939Z,99527.69
2023-07-26T16:27:32.224Z,99523.86
2023-07-26T16:29:58.602Z,99520.96
2023-07-26T16:32:24.912Z,99520.73
2023-07-26T16:34:51.331Z,99525.37
2023-07-26T16:37:17.822Z,99525.48
2023-07-26T16:39:44.182Z,99526.64
2023-07-26T16:42:10.723Z,99526.91
2023-07-26T16:44:37.212Z,99524.30
2023-07-26T16:47:09.401Z,99525.84
2023-07-26T16:49:38.277Z,99525.52
2023-07-26T16:52:05.153Z,99525.59
2023-07-26T16:54:31.589Z,99520.91
2023-07-26T16:56:58.056Z,99523.91
2023-07-26T16:59:26.315Z,99525.10
2023-07-26T17:01:52.822Z,99525.91
2023-07-26T17:04:19.594Z,99527.30
2023-07-26T17:06:46.268Z,99531.83
2023-07-26T17:09:12.781Z,99533.05
2023-07-26T17:11:39.195Z,99533.20
2023-07-26T17:14:05.703Z,99538.94
2023-07-26T17:16:32.703Z,99538.45
2023-07-26T17:18:59.487Z,99541.10
2023-07-26T17:21:25.928Z,99544.21
2023-07-26T17:23:52.365Z,99548.20
2023-07-26T17:26:18.826Z,99552.67
2023-07-26T17:28:46.442Z,99550.40
2023-07-26T17:31:13.140Z,99551.56
2023-07-26T17:33:39.539Z,99550.50
2023-07-26T17:36:14.497Z,99555.27
2023-07-26T17:38:41.108Z,99556.34
2023-07-26T17:41:07.993Z,99560.05
2023-07-26T17:43:36.319Z,99561.30
2023-07-26T17:46:03.662Z,99557.95
2023-07-26T17:48:34.980Z,99557.81
2023-07-26T17:51:01.341Z,99563.55
2023-07-26T17:53:28.937Z,99561.89
2023-07-26T17:55:55.330Z,99560.80
2023-07-26T17:58:21.666Z,99565.08
2023-07-26T18:00:48.051Z,99564.71
2023-07-26T18:03:14.648Z,99566.11
2023-07-26T18:05:42.066Z,99570.45
2023-07-26T18:08:08.520Z,99566.67
2023-07-26T18:10:36.580Z,99570.92
2023-07-26T18:13:03.782Z,99572.46
2023-07-26T18:15:30.635Z,99573.11
2023-07-26T18:17:57.127Z,99577.36
2023-07-26T18:20:23.635Z,99574.76
2023-07-26T18:22:50.048Z,99581.53
2023-07-26T18:25:16.376Z,99583.17
2023-07-26T18:27:43.083Z,99589.73
2023-07-26T18:30:10.106Z,99592.73
2023-07-26T18:32:36.597Z,99592.73
2023-07-26T18:35:03.048Z,99594.84
2023-07-26T18:37:31.515Z,99600.77
2023-07-26T18:39:57.909Z,99603.28
2023-07-26T18:42:24.311Z,99604.11
2023-07-26T18:44:50.923Z,99607.27
2023-07-26T18:47:17.326Z,99610.41
2023-07-26T18:49:43.749Z,99612.71
2023-07-26T18:52:10.481Z,99613.36
2023-07-26T18:54:36.969Z,99614.56
2023-07-26T18:57:03.757Z,99619.27
2023-07-26T18:59:30.385Z,99618.36
2023-07-26T19:01:57.150Z,99618.23
2023-07-26T19:04:23.604Z,99622.39
2023-07-26T19:06:50.172Z,99627.83
2023-07-26T19:09:16.703Z,99626.25
2023-07-26T19:11:43.115Z,99629.08
2023-07-26T19:14:09.461Z,99634.62
2023-07-26T19:16:36.340Z,99634.36
2023-07-26T19:19:03.029Z,99631.38
2023-07-26T19:21:29.401Z,99630.33
2023-07-26T19:23:57.254Z,99629.56
2023-07-26T19:26:24.000Z,99633.89
2023-07-26T19:28:51.526Z,99636.20
2023-07-26T19:31:17.999Z,99635.27
2023-07-26T19:33:44.603Z,99639.52
2023-07-26T19:36:11.348Z,99638.17
2023-07-26T19:38:38.438Z,99643.48
2023-07-26T19:41:08.947Z,99643.57
2023-07-26T19:43:36.879Z,99641.89
2023-07-26T19:46:06.586Z,99642.02
2023-07-26T19:48:33.033Z,99641.98
2023-07-26T19:51:00.925Z,99642.15
2023-07-26T19:53:27.813Z,99638.95
2023-07-26T19:55:54.456Z,99639.13
2023-07-26T19:58:21.100Z,99636.83
2023-07-26T20:00:47.551Z,99635.60
2023-07-26T20:03:14.018Z,99631.02
2023-07-26T20:05:46.380Z,99637.20
2023-07-26T20:08:14.639Z,99636.18
2023-07-26T20:10:45.250Z,99640.38
2023-07-26T20:13:15.577Z,99640.94
2023-07-26T20:15:42.971Z,99642.48
2023-07-26T20:18:10.984Z,99648.12
2023-07-26T20:20:37.519Z,99646.40
2023-07-26T20:23:04.962Z,99645.63
2023-07-26T20:25:32.955Z,99648.06
2023-07-26T20:27:59.763Z,99648.48
2023-07-26T20:30:26.962Z,99650.66
2023-07-26T20:32:53.518Z,99648.27
2023-07-26T20:35:19.946Z,99644.66
2023-07-26T20:37:46.467Z,99644.42
2023-07-26T20:40:12.867Z,99640.55
2023-07-26T20:42:39.222Z,99644.22
2023-07-26T20:45:08.389Z,99643.64
2023-07-26T20:47:34.768Z,99641.26
2023-07-26T20:50:01.201Z,99642.98
2023-07-26T20:52:27.806Z,99650.00
2023-07-26T20:54:54.707Z,99652.48
2023-07-26T20:57:21.134Z,99649.80
2023-07-26T20:59:47.523Z,99653.65
2023-07-26T21:02:14.084Z,99657.02
2023-07-26T21:04:40.440Z,99654.34
2023-07-26T21:07:06.814Z,99658.23
2023-07-26T21:09:33.157Z,99654.23
2023-07-26T21:12:00.938Z,99656.55
2023-07-26T21:14:27.476Z,99658.17
2023-07-26T21:16:54.028Z,99659.85
2023-07-26T21:19:20.773Z,99658.39
2023-07-26T21:21:47.220Z,99660.48
2023-07-26T21:24:13.612Z,99662.70
2023-07-26T21:26:39.969Z,99665.91
2023-07-26T21:29:06.317Z,99666.96
2023-07-26T21:31:32.861Z,99667.26
2023-07-26T21:33:59.200Z,99667.02
2023-07-26T21:36:25.626Z,99675.37
2023-07-26T21:38:52.012Z,99680.33
2023-07-26T21:41:18.480Z,99678.71
2023-07-26T21:43:45.023Z,99681.32
2023-07-26T21:46:11.424Z,99680.89
2023-07-26T21:48:37.891Z,99683.64
2023-07-26T21:51:04.297Z,99686.34
2023-07-26T21:53:30.755Z,99679.91
2023-07-26T21:55:57.181Z,99677.27
2023-07-26T21:58:23.561Z,99676.85
2023-07-26T22:00:51.686Z,99677.08
2023-07-26T22:03:18.143Z,99679.39
2023-07-26T22:05:48.742Z,99681.96
2023-07-26T22:08:15.800Z,99682.77
2023-07-26T22:10:42.201Z,99683.62
2023-07-26T22:13:10.661Z,99680.84
2023-07-26T22:15:37.384Z,99690.05
2023-07-26T22:18:04.087Z,99690.02
2023-07-26T22:20:30.527Z,99689.59
2023-07-26T22:22:56.920Z,99688.48
2023-07-26T22:25:23.423Z,99692.51
2023-07-26T22:27:49.897Z,99694.80
2023-07-26T22:30:16.459Z,99691.86
2023-07-26T22:32:42.911Z,99694.77
2023-07-26T22:35:09.682Z,99695.02
2023-07-26T22:37:35.953Z,99695.48
2023-07-26T22:40:02.490Z,99692.74
2023-07-26T22:42:33.653Z,99695.97
2023-07-26T22:45:00.114Z,99698.58
2023-07-26T22:47:26.868Z,99701.63
2023-07-26T22:49:54.658Z,99705.40
2023-07-26T22:52:22.018Z,99708.95
2023-07-26T22:54:49.202Z,99711.09
2023-07-26T22:57:16.272Z,99707.67
2023-07-26T22:59:48.821Z,99709.94
2023-07-26T23:02:16.198Z,99712.97
2023-07-26T23:04:43.125Z,99711.36
2023-07-26T23:07:09.503Z,99716.80
2023-07-26T23:09:35.864Z,99717.43
2023-07-26T23:12:02.240Z,99720.95
2023-07-26T23:14:28.525Z,99723.95
2023-07-26T23:16:54.893Z,99724.91
2023-07-26T23:19:21.223Z,99724.97
2023-07-26T23:21:47.629Z,99726.59
2023-07-26T23:24:14.071Z,99735.13
2023-07-26T23:26:40.414Z,99735.59
2023-07-26T23:29:06.880Z,99736.08
2023-07-26T23:31:34.746Z,99735.41
2023-07-26T23:34:01.364Z,99729.27
2023-07-26T23:36:27.776Z,99734.42
2023-07-26T23:38:54.098Z,99731.88
2023-07-26T23:41:22.572Z,99735.20
2023-07-26T23:43:48.951Z,99732.20
2023-07-26T23:46:15.986Z,99732.06
2023-07-26T23:48:44.943Z,99735.45
2023-07-26T23:51:11.925Z,99734.04
2023-07-26T23:53:38.460Z,99730.39
2023-07-26T23:56:05.153Z,99732.77
2023-07-26T23:58:31.473Z,99731.73
